createdAt,value
2018-05-02T00:00:30.375Z,6.70
2018-05-02T00:02:57.216Z,7.30
2018-05-02T00:05:24.174Z,5.70
2018-05-02T00:07:50.253Z,6.07
2018-05-02T00:10:16.394Z,6.50
2018-05-02T00:12:42.528Z,7.57
2018-05-02T00:15:08.633Z,7.73
2018-05-02T00:17:34.804Z,7.43
2018-05-02T00:20:00.969Z,7.40
2018-05-02T00:22:27.081Z,6.73
2018-05-02T00:24:53.270Z,7.10
2018-05-02T00:27:19.512Z,6.77
2018-05-02T00:29:45.792Z,7.87
2018-05-02T00:32:11.884Z,6.90
2018-05-02T00:34:38.000Z,7.03
2018-05-02T00:37:04.157Z,7.90
2018-05-02T00:39:30.347Z,6.80
2018-05-02T00:41:56.438Z,7.73
2018-05-02T00:44:23.265Z,7.13
2018-05-02T00:46:50.113Z,7.50
2018-05-02T00:49:17.001Z,6.93
2018-05-02T00:51:43.209Z,7.23
2018-05-02T00:54:09.377Z,6.37
2018-05-02T00:56:35.540Z,10.63
2018-05-02T00:59:01.819Z,6.83
2018-05-02T01:01:27.910Z,7.73
2018-05-02T01:03:54.097Z,7.70
2018-05-02T01:06:20.259Z,7.93
2018-05-02T01:08:47.092Z,8.33
2018-05-02T01:11:13.924Z,6.37
2018-05-02T01:13:40.072Z,6.83
2018-05-02T01:16:06.289Z,7.20
2018-05-02T01:18:32.417Z,8.00
2018-05-02T01:20:58.540Z,7.20
2018-05-02T01:23:25.377Z,6.60
2018-05-02T01:25:52.359Z,6.23
2018-05-02T01:28:18.502Z,6.00
2018-05-02T01:30:44.680Z,5.57
2018-05-02T01:33:10.785Z,5.97
2018-05-02T01:35:36.956Z,5.87
2018-05-02T01:38:03.111Z,6.00
2018-05-02T01:40:29.224Z,5.93
2018-05-02T01:42:55.345Z,5.90
2018-05-02T01:45:21.458Z,6.87
2018-05-02T01:47:47.688Z,6.37
2018-05-02T01:50:13.876Z,9.47
2018-05-02T01:52:40.718Z,6.70
2018-05-02T01:55:06.807Z,5.83
2018-05-02T01:57:33.018Z,7.40
2018-05-02T01:59:59.125Z,6.43
2018-05-02T02:02:25.421Z,5.97
2018-05-02T02:04:52.361Z,5.90
2018-05-02T02:07:18.527Z,6.37
2018-05-02T02:09:44.664Z,5.33
2018-05-02T02:12:10.747Z,5.23
2018-05-02T02:14:36.882Z,4.93
2018-05-02T02:17:03.768Z,5.13
2018-05-02T02:19:30.193Z,4.93
2018-05-02T02:21:56.302Z,6.00
2018-05-02T02:24:22.403Z,7.27
2018-05-02T02:26:48.556Z,6.80
2018-05-02T02:29:14.724Z,7.47
2018-05-02T02:31:40.861Z,6.37
2018-05-02T02:34:07.099Z,7.03
2018-05-02T02:36:33.163Z,6.90
2018-05-02T02:38:59.257Z,6.90
2018-05-02T02:41:25.361Z,7.07
2018-05-02T02:43:51.491Z,7.80
2018-05-02T02:46:17.789Z,7.33
2018-05-02T02:48:43.890Z,6.10
2018-05-02T02:51:10.022Z,7.97
2018-05-02T02:53:36.083Z,8.17
2018-05-02T02:56:02.159Z,9.50
2018-05-02T02:58:28.290Z,6.70
2018-05-02T03:00:54.478Z,6.03
2018-05-02T03:03:21.356Z,5.30
2018-05-02T03:05:47.479Z,5.70
2018-05-02T03:08:13.591Z,5.77
2018-05-02T03:10:39.742Z,8.00
2018-05-02T03:13:05.839Z,6.10
2018-05-02T03:15:31.967Z,5.83
2018-05-02T03:17:58.112Z,5.23
2018-05-02T03:20:24.265Z,6.40
2018-05-02T03:22:50.357Z,6.70
2018-05-02T03:25:16.454Z,7.20
2018-05-02T03:27:42.581Z,6.93
2018-05-02T03:30:08.645Z,6.50
2018-05-02T03:32:34.755Z,6.63
2018-05-02T03:35:00.853Z,6.63
2018-05-02T03:37:27.760Z,8.10
2018-05-02T03:39:54.042Z,7.13
2018-05-02T03:42:20.153Z,6.80
2018-05-02T03:44:46.293Z,7.10
2018-05-02T03:47:12.380Z,5.07
2018-05-02T03:49:38.589Z,4.57
2018-05-02T03:52:04.820Z,5.13
2018-05-02T03:54:30.925Z,5.17
2018-05-02T03:56:57.109Z,6.27
2018-05-02T03:59:35.507Z,4.17
2018-05-02T04:02:13.751Z,4.90
2018-05-02T04:07:41.029Z,5.00
2018-05-02T04:10:07.240Z,3.87
2018-05-02T04:12:33.362Z,5.50
2018-05-02T04:14:59.504Z,3.60
2018-05-02T04:17:25.699Z,3.63
2018-05-02T04:19:51.842Z,3.50
2018-05-02T04:22:17.983Z,5.23
2018-05-02T04:24:44.099Z,4.30
2018-05-02T04:27:10.213Z,3.80
2018-05-02T04:29:36.279Z,4.60
2018-05-02T04:32:02.485Z,4.33
2018-05-02T04:34:28.721Z,4.57
2018-05-02T04:36:54.841Z,5.73
2018-05-02T04:39:20.942Z,5.17
2018-05-02T04:41:47.087Z,4.83
2018-05-02T04:44:13.277Z,4.50
2018-05-02T04:46:40.163Z,4.43
2018-05-02T04:49:06.362Z,5.70
2018-05-02T04:51:32.557Z,4.83
2018-05-02T04:53:58.838Z,4.50
2018-05-02T04:56:24.974Z,7.60
2018-05-02T04:58:51.079Z,5.03
2018-05-02T05:01:17.248Z,7.20
2018-05-02T05:03:43.377Z,6.03
2018-05-02T05:06:09.477Z,5.13
2018-05-02T05:08:35.742Z,4.20
2018-05-02T05:11:01.854Z,4.20
2018-05-02T05:13:28.016Z,4.37
2018-05-02T05:15:54.163Z,3.90
2018-05-02T05:18:20.322Z,5.33
2018-05-02T05:20:46.533Z,4.33
2018-05-02T05:23:12.673Z,4.47
2018-05-02T05:25:39.088Z,4.60
2018-05-02T05:28:05.345Z,4.13
2018-05-02T05:30:31.502Z,3.97
2018-05-02T05:32:57.988Z,4.13
2018-05-02T05:35:24.604Z,4.80
2018-05-02T05:37:51.531Z,4.13
2018-05-02T05:40:17.684Z,4.50
2018-05-02T05:42:44.014Z,4.33
2018-05-02T05:45:10.232Z,6.57
2018-05-02T05:47:36.571Z,4.47
2018-05-02T05:50:02.718Z,6.30
2018-05-02T05:52:28.862Z,5.17
2018-05-02T05:54:55.037Z,3.43
2018-05-02T05:57:21.892Z,5.67
2018-05-02T05:59:48.084Z,3.30
2018-05-02T06:02:14.232Z,5.23
2018-05-02T06:04:40.397Z,4.87
2018-05-02T06:07:06.622Z,4.83
2018-05-02T06:09:32.762Z,6.53
2018-05-02T06:11:59.023Z,4.27
2018-05-02T06:14:25.184Z,5.00
2018-05-02T06:16:51.361Z,6.53
2018-05-02T06:19:18.240Z,6.13
2018-05-02T06:21:44.311Z,4.97
2018-05-02T06:24:10.419Z,4.90
2018-05-02T06:26:36.658Z,7.07
2018-05-02T06:29:02.853Z,6.80
2018-05-02T06:31:29.166Z,5.07
2018-05-02T06:33:55.400Z,7.30
2018-05-02T06:36:21.534Z,6.50
2018-05-02T06:38:47.653Z,7.73
2018-05-02T06:41:14.392Z,6.13
2018-05-02T06:43:40.488Z,5.33
2018-05-02T06:46:06.608Z,5.80
2018-05-02T06:48:33.465Z,5.77
2018-05-02T06:50:59.524Z,5.57
2018-05-02T06:53:25.610Z,5.23
2018-05-02T06:55:51.703Z,5.73
2018-05-02T06:58:17.979Z,5.20
2018-05-02T07:00:44.108Z,9.13
2018-05-02T07:03:10.264Z,5.37
2018-05-02T07:05:36.470Z,5.30
2018-05-02T07:08:02.586Z,5.77
2018-05-02T07:10:28.655Z,5.17
2018-05-02T07:12:55.043Z,6.67
2018-05-02T07:15:21.253Z,6.60
2018-05-02T07:17:47.360Z,6.17
2018-05-02T07:20:13.529Z,6.03
2018-05-02T07:22:39.616Z,5.83
2018-05-02T07:25:05.843Z,6.33
2018-05-02T07:27:32.044Z,6.23
2018-05-02T07:29:58.152Z,6.97
2018-05-02T07:32:24.230Z,6.63
2018-05-02T07:34:50.333Z,6.37
2018-05-02T07:37:16.440Z,6.70
2018-05-02T07:39:42.705Z,6.63
2018-05-02T07:42:09.151Z,6.50
2018-05-02T07:44:35.221Z,7.00
2018-05-02T07:47:01.322Z,6.13
2018-05-02T07:49:27.405Z,7.67
2018-05-02T07:51:53.508Z,6.00
2018-05-02T07:54:19.652Z,7.67
2018-05-02T07:56:46.481Z,5.70
2018-05-02T07:59:12.650Z,6.37
2018-05-02T08:01:38.762Z,6.23
2018-05-02T08:04:04.926Z,6.83
2018-05-02T08:06:31.106Z,8.73
2018-05-02T08:08:57.259Z,6.27
2018-05-02T08:11:23.647Z,7.70
2018-05-02T08:13:49.780Z,7.77
2018-05-02T08:16:16.709Z,7.17
2018-05-02T08:18:42.806Z,6.53
2018-05-02T08:21:08.901Z,8.33
2018-05-02T08:23:35.114Z,7.90
2018-05-02T08:26:01.265Z,9.63
2018-05-02T08:28:27.402Z,8.73
2018-05-02T08:30:53.522Z,9.73
2018-05-02T08:33:19.654Z,7.37
2018-05-02T08:35:45.782Z,7.10
2018-05-02T08:38:11.937Z,7.50
2018-05-02T08:40:38.158Z,14.00
2018-05-02T08:43:04.762Z,8.57
2018-05-02T08:45:30.943Z,8.33
2018-05-02T08:47:57.078Z,5.83
2018-05-02T08:50:23.204Z,6.23
2018-05-02T08:52:49.417Z,9.63
2018-05-02T08:55:16.322Z,6.80
2018-05-02T08:57:42.597Z,6.87
2018-05-02T09:00:09.545Z,7.43
2018-05-02T09:02:35.678Z,8.23
2018-05-02T09:05:01.871Z,10.83
2018-05-02T09:07:28.072Z,8.70
2018-05-02T09:09:54.229Z,8.67
2018-05-02T09:12:20.381Z,8.40
2018-05-02T09:14:46.563Z,8.43
2018-05-02T09:17:12.718Z,9.43
2018-05-02T09:19:38.947Z,9.60
2018-05-02T09:22:05.298Z,10.77
2018-05-02T09:24:31.462Z,8.67
2018-05-02T09:26:57.696Z,11.73
2018-05-02T09:29:24.170Z,9.10
2018-05-02T09:31:50.407Z,10.33
2018-05-02T09:34:16.624Z,9.53
2018-05-02T09:36:42.747Z,8.97
2018-05-02T09:39:09.130Z,9.80
2018-05-02T09:41:35.771Z,9.17
2018-05-02T09:44:02.156Z,9.20
2018-05-02T09:46:28.318Z,10.00
2018-05-02T09:48:54.568Z,9.90
2018-05-02T09:51:20.863Z,9.30
2018-05-02T09:53:47.269Z,10.23
2018-05-02T09:56:13.545Z,8.43
2018-05-02T09:58:39.705Z,8.93
2018-05-02T10:01:06.576Z,9.73
2018-05-02T10:03:32.692Z,10.23
2018-05-02T10:05:58.827Z,9.93
2018-05-02T10:08:24.944Z,9.60
2018-05-02T10:10:51.112Z,9.13
2018-05-02T10:13:17.514Z,12.63
2018-05-02T10:15:43.691Z,10.97
2018-05-02T10:18:09.972Z,10.00
2018-05-02T10:20:36.137Z,10.70
2018-05-02T10:23:02.411Z,9.20
2018-05-02T10:25:28.685Z,8.80
2018-05-02T10:27:54.879Z,8.67
2018-05-02T10:30:21.032Z,9.73
2018-05-02T10:32:47.163Z,9.27
2018-05-02T10:35:13.358Z,9.63
2018-05-02T10:37:39.481Z,10.20
2018-05-02T10:40:05.706Z,9.47
2018-05-02T10:42:32.080Z,9.80
2018-05-02T10:44:58.261Z,10.07
2018-05-02T10:47:24.463Z,8.90
2018-05-02T10:49:51.200Z,9.27
2018-05-02T10:52:17.437Z,10.97
2018-05-02T10:54:43.722Z,10.10
2018-05-02T10:57:09.886Z,10.63
2018-05-02T10:59:36.074Z,13.00
2018-05-02T11:02:02.209Z,16.87
2018-05-02T11:04:28.510Z,9.83
2018-05-02T11:06:55.036Z,9.17
2018-05-02T11:09:23.981Z,9.73
2018-05-02T11:11:50.139Z,8.77
2018-05-02T11:14:16.350Z,11.07
2018-05-02T11:16:42.546Z,10.10
2018-05-02T11:19:08.738Z,11.90
2018-05-02T11:21:34.861Z,9.73
2018-05-02T11:24:01.055Z,9.87
2018-05-02T11:26:28.410Z,9.40
2018-05-02T11:28:55.593Z,8.87
2018-05-02T11:31:21.814Z,14.53
2018-05-02T11:33:47.987Z,9.17
2018-05-02T11:36:14.096Z,10.17
2018-05-02T11:38:40.366Z,9.50
2018-05-02T11:41:07.750Z,9.10
2018-05-02T11:43:33.885Z,9.93
2018-05-02T11:46:00.221Z,10.57
2018-05-02T11:48:26.391Z,9.13
2018-05-02T11:50:52.504Z,10.53
2018-05-02T11:53:18.609Z,9.30
2018-05-02T11:55:44.747Z,9.57
2018-05-02T11:58:11.053Z,10.03
2018-05-02T12:00:37.264Z,10.27
2018-05-02T12:03:03.439Z,11.57
2018-05-02T12:05:29.591Z,9.80
2018-05-02T12:07:56.462Z,10.07
2018-05-02T12:10:22.707Z,9.20
2018-05-02T12:12:48.903Z,9.27
2018-05-02T12:15:14.999Z,9.47
2018-05-02T12:17:42.070Z,9.70
2018-05-02T12:20:08.174Z,10.27
2018-05-02T12:22:34.334Z,8.97
2018-05-02T12:25:00.503Z,9.07
2018-05-02T12:27:26.841Z,11.13
2018-05-02T12:29:53.029Z,9.67
2018-05-02T12:32:19.128Z,9.10
2018-05-02T12:34:45.261Z,10.50
2018-05-02T12:37:11.365Z,9.00
2018-05-02T12:39:38.244Z,9.20
2018-05-02T12:42:16.628Z,9.77
2018-05-02T12:44:43.252Z,7.63
2018-05-02T12:47:09.815Z,9.63
2018-05-02T12:49:35.912Z,8.77
2018-05-02T12:52:02.766Z,9.27
2018-05-02T12:54:29.516Z,11.67
2018-05-02T12:56:55.709Z,9.57
2018-05-02T12:59:22.624Z,8.93
2018-05-02T13:01:48.756Z,11.27
2018-05-02T13:04:14.903Z,8.17
2018-05-02T13:06:41.135Z,8.97
2018-05-02T13:09:07.374Z,10.17
2018-05-02T13:11:33.587Z,8.17
2018-05-02T13:14:00.709Z,9.60
2018-05-02T13:16:28.657Z,8.57
2018-05-02T13:18:54.798Z,9.70
2018-05-02T13:21:21.049Z,9.73
2018-05-02T13:23:47.434Z,8.60
2018-05-02T13:26:13.665Z,8.43
2018-05-02T13:28:39.793Z,8.03
2018-05-02T13:31:06.073Z,9.13
2018-05-02T13:33:33.020Z,9.77
2018-05-02T13:35:59.424Z,11.57
2018-05-02T13:38:25.597Z,9.37
2018-05-02T13:40:52.476Z,8.97
2018-05-02T13:43:18.713Z,16.80
2018-05-02T13:45:44.821Z,8.40
2018-05-02T13:48:11.117Z,8.60
2018-05-02T13:50:38.004Z,12.23
2018-05-02T13:53:04.188Z,9.20
2018-05-02T13:55:31.069Z,9.60
2018-05-02T13:57:57.603Z,10.90
2018-05-02T14:00:24.539Z,8.43
2018-05-02T14:02:51.068Z,9.37
2018-05-02T14:05:17.204Z,8.77
2018-05-02T14:07:43.353Z,9.80
2018-05-02T14:10:09.672Z,16.33
2018-05-02T14:12:35.748Z,8.67
2018-05-02T14:15:03.123Z,9.10
2018-05-02T14:17:29.226Z,8.20
2018-05-02T14:19:55.383Z,8.87
2018-05-02T14:22:21.537Z,10.30
2018-05-02T14:24:47.718Z,9.03
2018-05-02T14:27:14.596Z,8.27
2018-05-02T14:29:40.731Z,9.93
2018-05-02T14:32:07.139Z,8.53
2018-05-02T14:34:33.235Z,7.60
2018-05-02T14:37:00.108Z,9.70
2018-05-02T14:39:26.253Z,8.20
2018-05-02T14:41:52.967Z,8.63
2018-05-02T14:44:19.192Z,7.97
2018-05-02T14:46:45.340Z,7.90
2018-05-02T14:49:11.449Z,9.00
2018-05-02T14:51:37.532Z,11.20
2018-05-02T14:54:04.108Z,8.40
2018-05-02T14:56:30.236Z,8.83
2018-05-02T14:58:56.597Z,8.27
2018-05-02T15:01:22.726Z,9.37
2018-05-02T15:03:48.873Z,9.20
2018-05-02T15:06:15.772Z,8.67
2018-05-02T15:08:41.930Z,8.10
2018-05-02T15:11:08.185Z,7.80
2018-05-02T15:13:35.053Z,9.50
2018-05-02T15:16:01.153Z,7.43
2018-05-02T15:18:27.268Z,8.53
2018-05-02T15:20:53.416Z,9.07
2018-05-02T15:23:19.577Z,8.73
2018-05-02T15:25:45.700Z,8.77
2018-05-02T15:28:11.806Z,9.10
2018-05-02T15:30:37.977Z,7.90
2018-05-02T15:33:04.177Z,9.57
2018-05-02T15:35:30.397Z,8.43
2018-05-02T15:37:56.612Z,8.70
2018-05-02T15:40:23.001Z,8.80
2018-05-02T15:42:49.244Z,7.73
2018-05-02T15:45:15.390Z,8.70
2018-05-02T15:47:41.494Z,11.10
2018-05-02T15:50:07.648Z,10.53
2018-05-02T15:52:34.079Z,9.73
2018-05-02T15:55:00.196Z,8.93
2018-05-02T15:57:26.329Z,8.97
2018-05-02T15:59:52.429Z,9.13
2018-05-02T16:02:18.556Z,10.07
2018-05-02T16:04:44.672Z,9.67
2018-05-02T16:07:11.552Z,9.63
2018-05-02T16:09:37.706Z,9.50
2018-05-02T16:12:03.867Z,10.73
2018-05-02T16:14:33.284Z,10.90
2018-05-02T16:16:59.385Z,9.83
2018-05-02T16:19:25.603Z,10.67
2018-05-02T16:21:51.965Z,10.00
2018-05-02T16:24:18.518Z,9.53
2018-05-02T16:26:44.659Z,11.00
2018-05-02T16:29:15.472Z,8.90
2018-05-02T16:31:41.734Z,9.53
2018-05-02T16:34:07.826Z,10.20
2018-05-02T16:36:33.932Z,9.37
2018-05-02T16:39:00.075Z,10.73
2018-05-02T16:41:27.081Z,10.60
2018-05-02T16:43:53.154Z,9.30
2018-05-02T16:46:19.228Z,9.77
2018-05-02T16:48:45.623Z,9.70
2018-05-02T16:51:11.744Z,10.43
2018-05-02T16:53:38.846Z,10.77
2018-05-02T16:56:05.269Z,9.57
2018-05-02T16:58:32.185Z,10.33
2018-05-02T17:00:58.353Z,11.17
2018-05-02T17:03:24.780Z,9.53
2018-05-02T17:05:51.798Z,10.20
2018-05-02T17:08:17.986Z,9.83
2018-05-02T17:10:44.123Z,25.17
2018-05-02T17:13:10.286Z,9.63
2018-05-02T17:15:36.458Z,9.80
2018-05-02T17:18:02.723Z,9.97
2018-05-02T17:20:28.921Z,10.33
2018-05-02T17:22:55.089Z,9.53
2018-05-02T17:25:21.280Z,9.67
2018-05-02T17:27:47.612Z,9.67
2018-05-02T17:30:14.013Z,8.90
2018-05-02T17:32:40.081Z,9.80
2018-05-02T17:35:06.212Z,13.17
2018-05-02T17:37:32.483Z,9.03
2018-05-02T17:39:59.386Z,9.30
2018-05-02T17:42:25.539Z,9.80
2018-05-02T17:44:52.380Z,11.67
2018-05-02T17:47:18.881Z,10.10
2018-05-02T17:49:45.466Z,10.83
2018-05-02T17:52:11.818Z,9.97
2018-05-02T17:54:38.413Z,9.73
2018-05-02T17:57:05.167Z,10.07
2018-05-02T17:59:31.672Z,10.10
2018-05-02T18:01:57.863Z,10.17
2018-05-02T18:04:24.135Z,10.17
2018-05-02T18:06:50.616Z,10.27
2018-05-02T18:09:16.791Z,9.87
2018-05-02T18:11:43.072Z,11.07
2018-05-02T18:14:09.278Z,9.47
2018-05-02T18:16:35.527Z,10.60
2018-05-02T18:19:01.790Z,10.40
2018-05-02T18:21:27.951Z,9.63
2018-05-02T18:23:55.312Z,10.57
2018-05-02T18:26:22.502Z,10.00
2018-05-02T18:28:48.953Z,10.23
2018-05-02T18:31:15.217Z,9.87
2018-05-02T18:33:41.597Z,9.80
2018-05-02T18:36:07.829Z,10.57
2018-05-02T18:38:34.107Z,10.53
2018-05-02T18:41:00.264Z,10.40
2018-05-02T18:43:26.454Z,9.97
2018-05-02T18:45:52.617Z,10.00
2018-05-02T18:48:18.875Z,10.43
2018-05-02T18:50:45.965Z,9.50
2018-05-02T18:53:12.902Z,10.20
2018-05-02T18:55:38.966Z,11.50
2018-05-02T18:58:05.292Z,10.30
2018-05-02T19:00:31.489Z,11.33
2018-05-02T19:02:58.330Z,11.53
2018-05-02T19:05:25.281Z,10.43
2018-05-02T19:07:52.181Z,10.17
2018-05-02T19:10:18.464Z,11.27
2018-05-02T19:12:44.672Z,11.30
2018-05-02T19:15:11.573Z,10.63
2018-05-02T19:17:54.545Z,10.50
2018-05-02T19:20:27.538Z,13.07
2018-05-02T19:22:53.691Z,11.90
2018-05-02T19:25:26.267Z,10.93
2018-05-02T19:27:52.382Z,11.37
2018-05-02T19:30:18.507Z,11.60
2018-05-02T19:32:50.778Z,12.13
2018-05-02T19:35:17.126Z,12.17
2018-05-02T19:37:43.256Z,11.37
2018-05-02T19:40:15.484Z,10.33
2018-05-02T19:42:47.640Z,11.27
2018-05-02T19:45:13.706Z,11.50
2018-05-02T19:47:40.267Z,11.13
2018-05-02T19:50:06.603Z,12.37
2018-05-02T19:52:38.855Z,11.90
2018-05-02T19:55:04.964Z,11.30
2018-05-02T19:57:32.060Z,12.00
2018-05-02T19:59:58.241Z,11.90
2018-05-02T20:02:30.397Z,11.00
2018-05-02T20:04:56.523Z,11.33
2018-05-02T20:07:28.709Z,12.33
2018-05-02T20:13:03.538Z,12.03
2018-05-02T20:15:29.685Z,11.77
2018-05-02T20:17:55.856Z,12.90
2018-05-02T20:20:22.114Z,12.23
2018-05-02T20:22:48.812Z,11.80
2018-05-02T20:25:15.175Z,15.23
2018-05-02T20:27:41.421Z,15.50
2018-05-02T20:30:07.685Z,13.43
2018-05-02T20:32:33.926Z,15.67
2018-05-02T20:35:01.128Z,12.57
2018-05-02T20:37:28.077Z,11.90
2018-05-02T20:39:54.219Z,12.57
2018-05-02T20:42:21.795Z,12.83
2018-05-02T20:44:47.903Z,14.07
2018-05-02T20:47:13.985Z,12.43
2018-05-02T20:49:40.340Z,12.77
2018-05-02T20:52:06.502Z,14.43
2018-05-02T20:54:33.369Z,12.30
2018-05-02T20:56:59.553Z,12.70
2018-05-02T20:59:25.673Z,14.50
2018-05-02T21:01:51.952Z,14.10
2018-05-02T21:04:18.972Z,12.63
2018-05-02T21:06:45.195Z,11.97
2018-05-02T21:09:11.479Z,12.00
2018-05-02T21:11:37.726Z,53.87
2018-05-02T21:14:03.871Z,13.03
2018-05-02T21:16:30.754Z,12.20
2018-05-02T21:18:56.913Z,13.40
2018-05-02T21:21:23.115Z,12.80
2018-05-02T21:23:49.291Z,12.37
2018-05-02T21:26:15.616Z,12.73
2018-05-02T21:28:41.748Z,12.47
2018-05-02T21:31:07.857Z,12.90
2018-05-02T21:33:33.940Z,13.33
2018-05-02T21:36:00.062Z,11.60
2018-05-02T21:38:26.297Z,13.00
2018-05-02T21:40:52.596Z,12.73
2018-05-02T21:43:18.685Z,12.70
2018-05-02T21:45:45.064Z,12.67
2018-05-02T21:48:11.196Z,14.73
2018-05-02T21:50:38.243Z,14.83
2018-05-02T21:53:04.355Z,12.60
2018-05-02T21:55:31.246Z,12.83
2018-05-02T21:57:57.527Z,12.67
2018-05-02T22:00:23.822Z,14.47
2018-05-02T22:02:50.165Z,14.47
2018-05-02T22:05:16.329Z,12.60
2018-05-02T22:07:43.329Z,13.33
2018-05-02T22:10:09.445Z,12.57
2018-05-02T22:12:35.663Z,14.87
2018-05-02T22:15:01.802Z,12.93
2018-05-02T22:17:27.897Z,13.50
2018-05-02T22:19:54.068Z,12.80
2018-05-02T22:22:20.169Z,13.57
2018-05-02T22:24:46.362Z,13.87
2018-05-02T22:27:12.964Z,13.13
2018-05-02T22:29:39.059Z,14.77
2018-05-02T22:32:05.152Z,13.27
2018-05-02T22:34:31.250Z,13.70
2018-05-02T22:36:58.108Z,13.63
2018-05-02T22:39:24.240Z,13.73
2018-05-02T22:41:50.364Z,13.83
2018-05-02T22:44:16.461Z,13.57
2018-05-02T22:46:42.620Z,14.30
2018-05-02T22:49:08.876Z,14.10
2018-05-02T22:51:35.044Z,13.07
2018-05-02T22:54:01.169Z,13.63
2018-05-02T22:56:27.309Z,14.77
2018-05-02T22:58:54.382Z,16.47
2018-05-02T23:01:20.604Z,13.67
2018-05-02T23:03:46.796Z,16.80
2018-05-02T23:06:12.932Z,14.83
2018-05-02T23:08:39.835Z,15.53
2018-05-02T23:11:05.922Z,14.73
2018-05-02T23:13:32.005Z,14.70
2018-05-02T23:15:58.174Z,14.93
2018-05-02T23:18:24.352Z,14.03
2018-05-02T23:20:50.360Z,16.73
2018-05-02T23:23:16.433Z,15.03
2018-05-02T23:25:42.581Z,16.13
2018-05-02T23:28:08.784Z,15.40
2018-05-02T23:30:35.113Z,14.30
2018-05-02T23:33:01.312Z,16.03
2018-05-02T23:35:27.496Z,14.93
2018-05-02T23:37:53.747Z,14.47
2018-05-02T23:40:19.867Z,16.87
2018-05-02T23:42:45.944Z,16.33
2018-05-02T23:45:12.777Z,15.70
2018-05-02T23:47:38.869Z,16.17
2018-05-02T23:50:04.998Z,15.13
2018-05-02T23:52:31.139Z,15.00
2018-05-02T23:54:57.203Z,18.17
2018-05-02T23:57:23.300Z,16.70
2018-05-02T23:59:50.192Z,14.97
